Time;durP1;ratioP1;P1;durP2;ratioP2;P2;SDS_P1;SDS_P2;PMS_P1;PMS_P2;Temp;Humidity;BMP_temperature;BMP_pressure;BME280_temperature;BME280_humidity;BME280_pressure;Samples;Min_cycle;Max_cycle;Signal;HPM_P1;HPM_P2
2022/06/08 00:01:22;;;;;;;2.40;2.30;;;;;;;;;;5053130;28;20448;-59
2022/06/08 00:03:51;;;;;;;3.40;3.10;;;;;;;;;;5053362;28;20540;-60
2022/06/08 00:06:19;;;;;;;3.00;2.80;;;;;;;;;;5053321;28;20546;-59
2022/06/08 00:08:46;;;;;;;3.10;2.80;;;;;;;;;;5053143;28;20458;-59
2022/06/08 00:11:15;;;;;;;3.37;3.17;;;;;;;;;;5053083;28;20889;-59
2022/06/08 00:13:42;;;;;;;2.87;2.67;;;;;;;;;;5053075;28;20455;-59
2022/06/08 00:16:09;;;;;;;3.00;2.80;;;;;;;;;;5053076;28;20474;-59
2022/06/08 00:18:39;;;;;;;4.60;2.53;;;;;;;;;;5053267;28;20816;-60
2022/06/08 00:21:06;;;;;;;3.03;2.83;;;;;;;;;;5053226;28;20491;-59
2022/06/08 00:23:33;;;;;;;2.77;2.57;;;;;;;;;;5053042;28;20554;-59
2022/06/08 00:26:00;;;;;;;3.47;3.20;;;;;;;;;;5052952;28;20506;-59
2022/06/08 00:28:28;;;;;;;3.53;3.30;;;;;;;;;;5053042;28;20936;-59
2022/06/08 00:30:55;;;;;;;2.67;2.47;;;;;;;;;;5052845;28;20944;-60
2022/06/08 00:33:22;;;;;;;5.00;2.80;;;;;;;;;;5052928;28;20448;-59
2022/06/08 00:35:49;;;;;;;3.27;2.97;;;;;;;;;;5052915;28;20459;-59
2022/06/08 00:38:16;;;;;;;3.53;2.90;;;;;;;;;;5052609;28;21047;-59
2022/06/08 00:40:47;;;;;;;3.40;3.10;;;;;;;;;;5052723;28;20545;-59
2022/06/08 00:43:15;;;;;;;4.27;3.10;;;;;;;;;;5052509;28;20815;-60
2022/06/08 00:45:44;;;;;;;3.30;3.10;;;;;;;;;;5052908;28;20506;-60
2022/06/08 00:48:11;;;;;;;2.70;2.60;;;;;;;;;;5056166;28;20547;-59
2022/06/08 00:50:40;;;;;;;3.27;3.07;;;;;;;;;;5056774;28;20444;-59
2022/06/08 00:53:08;;;;;;;2.90;2.70;;;;;;;;;;5056812;28;20444;-59
2022/06/08 00:55:37;;;;;;;3.70;3.43;;;;;;;;;;5056543;28;20795;-59
2022/06/08 00:58:06;;;;;;;3.53;3.10;;;;;;;;;;5056448;28;20991;-60
2022/06/08 01:00:34;;;;;;;3.20;3.00;;;;;;;;;;5056698;28;20542;-59
2022/06/08 01:03:03;;;;;;;3.03;2.87;;;;;;;;;;5056631;28;20448;-59
2022/06/08 01:05:31;;;;;;;3.50;3.20;;;;;;;;;;5056432;28;20970;-59
2022/06/08 01:08:01;;;;;;;2.87;2.67;;;;;;;;;;5056331;28;20513;-59
2022/06/08 01:10:28;;;;;;;3.10;3.00;;;;;;;;;;5056580;28;20565;-60
2022/06/08 01:13:01;;;;;;;3.97;3.00;;;;;;;;;;5056412;28;20448;-59
2022/06/08 01:15:29;;;;;;;5.80;3.40;;;;;;;;;;5056392;28;20452;-59
2022/06/08 01:17:56;;;;;;;3.43;2.80;;;;;;;;;;5056205;28;20515;-59
2022/06/08 01:20:24;;;;;;;3.57;3.33;;;;;;;;;;5056422;28;20456;-60
2022/06/08 01:22:53;;;;;;;5.10;2.90;;;;;;;;;;5056064;28;20448;-59
2022/06/08 01:25:21;;;;;;;3.00;2.70;;;;;;;;;;5056261;28;20444;-60
2022/06/08 01:27:56;;;;;;;3.40;2.60;;;;;;;;;;5056184;28;20451;-59
2022/06/08 01:30:25;;;;;;;2.97;2.77;;;;;;;;;;5056118;28;20458;-59
2022/06/08 01:33:10;;;;;;;3.57;3.37;;;;;;;;;;5056483;28;20454;-59
2022/06/08 01:35:40;;;;;;;2.90;2.70;;;;;;;;;;5056114;28;20546;-60
2022/06/08 01:38:12;;;;;;;3.23;3.03;;;;;;;;;;5056067;28;20506;-59
2022/06/08 01:40:50;;;;;;;2.80;2.60;;;;;;;;;;5056006;28;20533;-59
2022/06/08 01:43:28;;;;;;;2.73;2.53;;;;;;;;;;5055599;28;20539;-60
2022/06/08 01:46:07;;;;;;;2.90;2.70;;;;;;;;;;5055916;28;20478;-60
2022/06/08 01:48:52;;;;;;;3.13;2.93;;;;;;;;;;5055814;28;20527;-59
2022/06/08 01:51:50;;;;;;;3.80;3.10;;;;;;;;;;5055791;28;20459;-59
2022/06/08 01:54:23;;;;;;;2.80;2.60;;;;;;;;;;5013650;28;20490;-60
2022/06/08 01:56:52;;;;;;;3.20;2.60;;;;;;;;;;5047758;28;20454;-59
2022/06/08 01:59:26;;;;;;;3.60;2.87;;;;;;;;;;5055317;28;20815;-59
2022/06/08 02:01:57;;;;;;;3.10;2.87;;;;;;;;;;5055484;28;20539;-59
2022/06/08 02:04:29;;;;;;;3.30;3.10;;;;;;;;;;5055298;28;20543;-59
2022/06/08 02:06:59;;;;;;;3.57;3.37;;;;;;;;;;5055496;28;20462;-59
2022/06/08 02:09:30;;;;;;;3.80;3.50;;;;;;;;;;5055445;28;20452;-59
2022/06/08 02:12:00;;;;;;;3.20;3.00;;;;;;;;;;5055228;28;20543;-59
2022/06/08 02:14:29;;;;;;;2.67;2.50;;;;;;;;;;5055129;28;20458;-59
2022/06/08 02:17:03;;;;;;;3.50;3.20;;;;;;;;;;5054913;28;20543;-59
2022/06/08 02:19:32;;;;;;;3.30;3.10;;;;;;;;;;5055069;28;20920;-60
2022/06/08 02:22:00;;;;;;;3.30;3.10;;;;;;;;;;5055165;28;20451;-60
2022/06/08 02:24:31;;;;;;;3.60;3.27;;;;;;;;;;5055054;28;20445;-59
2022/06/08 02:27:00;;;;;;;3.40;2.83;;;;;;;;;;5055048;28;20913;-59
2022/06/08 02:29:30;;;;;;;3.07;2.90;;;;;;;;;;5054857;28;20444;-59
2022/06/08 02:31:59;;;;;;;7.20;4.10;;;;;;;;;;5055043;28;20635;-59
2022/06/08 02:34:28;;;;;;;3.07;2.97;;;;;;;;;;5054874;28;20455;-59
2022/06/08 02:36:56;;;;;;;5.40;3.50;;;;;;;;;;5054696;28;20547;-59
2022/06/08 02:39:25;;;;;;;3.73;3.43;;;;;;;;;;5054719;28;20459;-59
2022/06/08 02:41:54;;;;;;;3.60;3.40;;;;;;;;;;5054649;28;20445;-59
2022/06/08 02:44:23;;;;;;;3.90;3.63;;;;;;;;;;5054507;28;20529;-59
2022/06/08 02:46:53;;;;;;;5.53;3.67;;;;;;;;;;5054738;28;20448;-59
2022/06/08 02:49:20;;;;;;;3.37;3.17;;;;;;;;;;5054570;28;20448;-59
2022/06/08 02:51:50;;;;;;;3.60;3.40;;;;;;;;;;5054534;28;20459;-59
2022/06/08 02:54:19;;;;;;;3.60;3.40;;;;;;;;;;5054380;28;20542;-59
2022/06/08 02:56:55;;;;;;;4.30;4.00;;;;;;;;;;5054508;28;20543;-59
2022/06/08 02:59:26;;;;;;;3.80;3.50;;;;;;;;;;5054537;28;20452;-59
2022/06/08 03:01:56;;;;;;;6.23;3.60;;;;;;;;;;5054321;28;20455;-59
2022/06/08 03:04:25;;;;;;;3.80;3.60;;;;;;;;;;5054308;28;20655;-59
2022/06/08 03:06:55;;;;;;;3.70;3.50;;;;;;;;;;5054010;28;20458;-59
2022/06/08 03:09:23;;;;;;;3.80;3.50;;;;;;;;;;5053598;28;20444;-59
2022/06/08 03:11:52;;;;;;;4.40;4.07;;;;;;;;;;5054112;28;20453;-59
2022/06/08 03:14:19;;;;;;;3.50;3.30;;;;;;;;;;5054037;28;20974;-59
2022/06/08 03:16:54;;;;;;;3.60;3.30;;;;;;;;;;5053990;28;20954;-59
2022/06/08 03:19:21;;;;;;;3.47;3.27;;;;;;;;;;5054066;28;20578;-59
2022/06/08 03:21:48;;;;;;;9.47;3.60;;;;;;;;;;5053807;28;21000;-60
2022/06/08 03:24:16;;;;;;;3.47;3.27;;;;;;;;;;5053915;28;20491;-59
2022/06/08 03:26:44;;;;;;;4.43;3.33;;;;;;;;;;5053906;28;20455;-59
2022/06/08 03:29:11;;;;;;;4.80;3.73;;;;;;;;;;5053818;28;20781;-59
2022/06/08 03:31:38;;;;;;;4.03;3.30;;;;;;;;;;5053581;28;20454;-60
2022/06/08 03:34:07;;;;;;;3.50;3.20;;;;;;;;;;5053809;28;20475;-59
2022/06/08 03:36:34;;;;;;;2.97;2.87;;;;;;;;;;5053797;28;20452;-59
2022/06/08 03:39:01;;;;;;;4.07;3.50;;;;;;;;;;5053639;28;20902;-59
2022/06/08 03:41:28;;;;;;;3.67;3.30;;;;;;;;;;5053508;28;20811;-59
2022/06/08 03:43:55;;;;;;;4.80;3.70;;;;;;;;;;5053227;28;20490;-59
2022/06/08 03:46:22;;;;;;;3.77;3.43;;;;;;;;;;5053579;28;20448;-59
2022/06/08 03:48:51;;;;;;;3.70;3.23;;;;;;;;;;5053573;28;20456;-60
2022/06/08 03:51:20;;;;;;;3.43;3.23;;;;;;;;;;5053653;28;20444;-59
2022/06/08 03:53:48;;;;;;;4.10;3.80;;;;;;;;;;5053610;28;20459;-59
2022/06/08 03:56:17;;;;;;;4.90;4.50;;;;;;;;;;5053368;28;20424;-59
2022/06/08 03:58:44;;;;;;;5.33;4.30;;;;;;;;;;5053051;28;20480;-60
2022/06/08 04:01:12;;;;;;;4.37;3.97;;;;;;;;;;5053104;28;20539;-59
2022/06/08 04:03:39;;;;;;;3.83;3.63;;;;;;;;;;5053294;28;20539;-59
2022/06/08 04:06:07;;;;;;;4.67;3.77;;;;;;;;;;5053216;28;20463;-59
2022/06/08 04:08:36;;;;;;;6.90;3.90;;;;;;;;;;5053251;28;20459;-59
2022/06/08 04:11:03;;;;;;;5.17;3.60;;;;;;;;;;5053054;28;20863;-59
2022/06/08 04:13:30;;;;;;;4.00;3.80;;;;;;;;;;5052924;28;20448;-59
2022/06/08 04:15:57;;;;;;;4.40;4.10;;;;;;;;;;5053178;28;20446;-59
2022/06/08 04:18:24;;;;;;;4.43;4.03;;;;;;;;;;5053023;28;20484;-59
2022/06/08 04:20:53;;;;;;;3.83;3.60;;;;;;;;;;5053016;28;20448;-59
2022/06/08 04:23:21;;;;;;;5.77;4.00;;;;;;;;;;5052905;28;20448;-59
2022/06/08 04:25:49;;;;;;;3.27;3.00;;;;;;;;;;5052753;28;20454;-59
2022/06/08 04:28:17;;;;;;;3.20;3.00;;;;;;;;;;5053038;28;20432;-59
2022/06/08 04:30:44;;;;;;;5.50;3.10;;;;;;;;;;5052863;28;20523;-59
2022/06/08 04:33:11;;;;;;;3.87;3.67;;;;;;;;;;5052961;28;20538;-59
2022/06/08 04:35:38;;;;;;;5.47;3.53;;;;;;;;;;5052808;28;20445;-59
2022/06/08 04:38:06;;;;;;;3.20;3.00;;;;;;;;;;5052704;28;20475;-59
2022/06/08 04:40:33;;;;;;;3.10;2.90;;;;;;;;;;5052642;28;20444;-60
2022/06/08 04:43:01;;;;;;;2.90;2.70;;;;;;;;;;5052888;28;20456;-60
2022/06/08 04:45:28;;;;;;;4.63;3.80;;;;;;;;;;5052462;28;20484;-59
2022/06/08 04:47:56;;;;;;;3.00;2.80;;;;;;;;;;5052771;28;20451;-59
2022/06/08 04:50:23;;;;;;;2.60;2.40;;;;;;;;;;5052617;28;20452;-60
2022/06/08 04:52:50;;;;;;;2.80;2.60;;;;;;;;;;5052480;28;20444;-60
2022/06/08 04:55:17;;;;;;;2.50;2.40;;;;;;;;;;5052422;28;20535;-60
2022/06/08 04:57:44;;;;;;;2.93;2.70;;;;;;;;;;5052646;28;20543;-60
2022/06/08 05:00:14;;;;;;;3.93;2.37;;;;;;;;;;5052658;28;20815;-59
2022/06/08 05:02:44;;;;;;;2.13;2.03;;;;;;;;;;5052852;28;20484;-59
2022/06/08 05:05:12;;;;;;;2.47;2.20;;;;;;;;;;5052545;28;20460;-60
2022/06/08 05:07:39;;;;;;;4.80;3.23;;;;;;;;;;5052411;28;20457;-60
2022/06/08 05:10:06;;;;;;;3.00;2.20;;;;;;;;;;5052516;28;20807;-60
2022/06/08 05:12:35;;;;;;;3.33;3.00;;;;;;;;;;5052544;28;20466;-59
2022/06/08 05:15:02;;;;;;;4.30;2.30;;;;;;;;;;5052417;28;20459;-60
2022/06/08 05:17:30;;;;;;;2.40;2.20;;;;;;;;;;5052319;28;20535;-59
2022/06/08 05:19:57;;;;;;;2.40;2.30;;;;;;;;;;5052358;28;20480;-60
2022/06/08 05:22:24;;;;;;;3.70;2.50;;;;;;;;;;5052564;28;20448;-60
2022/06/08 05:24:51;;;;;;;2.37;2.17;;;;;;;;;;5052788;28;20452;-60
2022/06/08 05:27:18;;;;;;;4.23;2.30;;;;;;;;;;5052347;28;20973;-60
2022/06/08 05:29:45;;;;;;;2.60;1.90;;;;;;;;;;5052478;28;20494;-60
2022/06/08 05:32:12;;;;;;;2.30;2.20;;;;;;;;;;5052282;28;20450;-60
2022/06/08 05:34:40;;;;;;;2.13;1.93;;;;;;;;;;5055711;28;20450;-60
2022/06/08 05:37:07;;;;;;;2.30;2.10;;;;;;;;;;5055906;28;20557;-59
2022/06/08 05:39:34;;;;;;;2.23;2.00;;;;;;;;;;5055706;28;20487;-60
2022/06/08 05:42:01;;;;;;;2.60;2.20;;;;;;;;;;5055669;28;20447;-60
2022/06/08 05:44:28;;;;;;;2.77;2.10;;;;;;;;;;5055643;28;20851;-60
2022/06/08 05:46:55;;;;;;;2.60;2.03;;;;;;;;;;5055897;28;20478;-59
2022/06/08 05:49:22;;;;;;;6.03;2.90;;;;;;;;;;5055132;28;20445;-60
2022/06/08 05:51:51;;;;;;;3.23;2.27;;;;;;;;;;5055562;28;20444;-60
2022/06/08 05:54:18;;;;;;;2.97;2.23;;;;;;;;;;5055487;28;20452;-60
2022/06/08 05:56:45;;;;;;;3.20;2.17;;;;;;;;;;5055394;28;20559;-60
2022/06/08 05:59:12;;;;;;;2.27;1.80;;;;;;;;;;5055150;28;20480;-60
2022/06/08 06:01:39;;;;;;;2.33;2.13;;;;;;;;;;5055248;28;20448;-60
2022/06/08 06:04:07;;;;;;;2.80;1.80;;;;;;;;;;5055325;28;20547;-59
2022/06/08 06:06:34;;;;;;;1.60;1.50;;;;;;;;;;5055206;28;20456;-60
2022/06/08 06:09:02;;;;;;;3.10;1.63;;;;;;;;;;5055323;28;20543;-60
2022/06/08 06:11:29;;;;;;;2.03;1.80;;;;;;;;;;5055007;28;20869;-60
2022/06/08 06:13:57;;;;;;;2.03;1.87;;;;;;;;;;5055135;28;20452;-60
2022/06/08 06:16:25;;;;;;;2.60;1.83;;;;;;;;;;5054986;28;20452;-60
2022/06/08 06:18:52;;;;;;;1.93;1.83;;;;;;;;;;5054963;28;20483;-60
2022/06/08 06:21:20;;;;;;;2.00;1.90;;;;;;;;;;5054980;28;20455;-60
2022/06/08 06:23:47;;;;;;;2.60;2.17;;;;;;;;;;5054887;28;20452;-60
2022/06/08 06:26:16;;;;;;;2.77;1.70;;;;;;;;;;5054751;28;20450;-60
2022/06/08 06:28:42;;;;;;;2.57;1.60;;;;;;;;;;5054720;28;20785;-60
2022/06/08 06:31:10;;;;;;;4.70;1.60;;;;;;;;;;5054479;28;20447;-60
2022/06/08 06:33:37;;;;;;;1.90;1.80;;;;;;;;;;5054680;28;20449;-60
2022/06/08 06:36:04;;;;;;;1.70;1.60;;;;;;;;;;5054416;28;20811;-60
2022/06/08 06:38:31;;;;;;;1.80;1.40;;;;;;;;;;5054517;28;20480;-60
2022/06/08 06:40:58;;;;;;;3.67;1.80;;;;;;;;;;5054413;28;20448;-60
2022/06/08 06:43:26;;;;;;;4.30;1.93;;;;;;;;;;5053924;28;21002;-60
2022/06/08 06:45:53;;;;;;;4.60;1.77;;;;;;;;;;5053446;28;21007;-60
2022/06/08 06:48:20;;;;;;;2.03;1.70;;;;;;;;;;5054548;28;20450;-60
2022/06/08 06:50:47;;;;;;;3.77;1.80;;;;;;;;;;5054456;28;20474;-60
2022/06/08 06:53:14;;;;;;;8.90;2.40;;;;;;;;;;5054142;28;20480;-60
2022/06/08 06:55:41;;;;;;;6.30;2.43;;;;;;;;;;5054412;28;20956;-60
2022/06/08 06:58:08;;;;;;;2.27;1.73;;;;;;;;;;5054272;28;20448;-60
2022/06/08 07:00:36;;;;;;;1.57;1.47;;;;;;;;;;5054248;28;20543;-60
2022/06/08 07:03:04;;;;;;;1.90;1.80;;;;;;;;;;5053844;28;20547;-60
2022/06/08 07:05:32;;;;;;;4.40;1.70;;;;;;;;;;5054129;28;20448;-60
2022/06/08 07:07:59;;;;;;;2.60;2.40;;;;;;;;;;5054042;28;20444;-60
2022/06/08 07:10:26;;;;;;;1.77;1.67;;;;;;;;;;5053958;28;20457;-59
2022/06/08 07:12:53;;;;;;;3.00;1.83;;;;;;;;;;5054151;28;20527;-60
2022/06/08 07:15:23;;;;;;;3.93;1.80;;;;;;;;;;5053973;28;20480;-59
2022/06/08 07:17:51;;;;;;;1.53;1.30;;;;;;;;;;5053944;28;20448;-59
2022/06/08 07:20:19;;;;;;;1.53;1.40;;;;;;;;;;5053681;28;20544;-60
2022/06/08 07:22:47;;;;;;;1.90;1.80;;;;;;;;;;5054260;28;20475;-60
2022/06/08 07:25:14;;;;;;;92.17;55.20;;;;;;;;;;5054332;28;20448;-60
2022/06/08 07:27:42;;;;;;;4.13;1.27;;;;;;;;;;5053723;28;20531;-66
2022/06/08 07:30:10;;;;;;;2.93;1.50;;;;;;;;;;5072699;28;20935;-67
2022/06/08 07:32:37;;;;;;;2.07;1.40;;;;;;;;;;5073456;28;20454;-66
2022/06/08 07:35:06;;;;;;;1.63;1.10;;;;;;;;;;5073436;28;20487;-66
2022/06/08 07:37:33;;;;;;;4.03;1.40;;;;;;;;;;5073325;28;20546;-67
2022/06/08 07:40:00;;;;;;;5.07;1.37;;;;;;;;;;5046449;28;20781;-61
2022/06/08 07:42:27;;;;;;;5.87;1.50;;;;;;;;;;5042455;28;20453;-60
2022/06/08 07:44:54;;;;;;;2.80;1.33;;;;;;;;;;5033294;28;21034;-60
2022/06/08 07:47:21;;;;;;;1.60;1.10;;;;;;;;;;5046955;28;20531;-59
2022/06/08 07:49:49;;;;;;;1.10;1.00;;;;;;;;;;5051536;28;20494;-62
2022/06/08 07:52:19;;;;;;;1.17;1.03;;;;;;;;;;5060259;28;20454;-61
2022/06/08 07:54:47;;;;;;;3.67;1.10;;;;;;;;;;5040496;28;20506;-59
2022/06/08 07:57:17;;;;;;;1.20;1.10;;;;;;;;;;5033564;28;20460;-61
2022/06/08 07:59:44;;;;;;;1.53;1.03;;;;;;;;;;5040009;28;20483;-60
2022/06/08 08:02:12;;;;;;;2.50;1.20;;;;;;;;;;5043834;28;20453;-60
2022/06/08 08:04:39;;;;;;;2.10;1.40;;;;;;;;;;5033222;28;20881;-58
2022/06/08 08:07:06;;;;;;;1.93;1.20;;;;;;;;;;5033402;28;20857;-58
2022/06/08 08:09:34;;;;;;;1.33;1.10;;;;;;;;;;5033128;28;20800;-58
2022/06/08 08:12:02;;;;;;;1.87;1.20;;;;;;;;;;5033052;28;20539;-59
2022/06/08 08:14:29;;;;;;;1.50;1.40;;;;;;;;;;5055097;28;20498;-59
2022/06/08 08:16:56;;;;;;;1.83;1.20;;;;;;;;;;5055670;28;20959;-59
2022/06/08 08:19:25;;;;;;;1.43;1.20;;;;;;;;;;5040367;28;20480;-60
2022/06/08 08:21:52;;;;;;;1.97;1.30;;;;;;;;;;5052655;28;20809;-64
2022/06/08 08:24:19;;;;;;;1.40;1.20;;;;;;;;;;5052474;28;21030;-61
2022/06/08 08:26:49;;;;;;;4.10;1.30;;;;;;;;;;5052591;28;20519;-58
2022/06/08 08:29:17;;;;;;;3.10;1.23;;;;;;;;;;5052707;28;20449;-58
2022/06/08 08:31:44;;;;;;;3.07;1.37;;;;;;;;;;5051251;28;21187;-59
2022/06/08 08:34:11;;;;;;;1.10;1.00;;;;;;;;;;5046268;28;20449;-60
2022/06/08 08:36:38;;;;;;;1.73;1.10;;;;;;;;;;5053328;28;20539;-61
2022/06/08 08:39:05;;;;;;;1.27;1.17;;;;;;;;;;5051852;28;20468;-61
2022/06/08 08:44:28;;;;;;;1.00;0.90;;;;;;;;;;5049764;28;20483;-61
2022/06/08 08:46:57;;;;;;;4.13;1.20;;;;;;;;;;5052794;28;20454;-62
2022/06/08 08:49:25;;;;;;;3.07;1.10;;;;;;;;;;5052811;28;20452;-61
2022/06/08 08:51:58;;;;;;;2.73;0.90;;;;;;;;;;5041344;28;20798;-62
2022/06/08 08:54:30;;;;;;;1.13;1.00;;;;;;;;;;5052485;28;20455;-62
2022/06/08 08:57:01;;;;;;;1.57;1.00;;;;;;;;;;5052420;28;20543;-62
2022/06/08 08:59:31;;;;;;;1.30;1.20;;;;;;;;;;5052533;28;20511;-59
2022/06/08 09:01:58;;;;;;;6.13;1.50;;;;;;;;;;5050114;28;20452;-59
2022/06/08 09:04:28;;;;;;;1.10;1.00;;;;;;;;;;5052486;28;20448;-57
2022/06/08 09:06:55;;;;;;;1.30;1.10;;;;;;;;;;5047826;28;20488;-63
2022/06/08 09:09:24;;;;;;;0.80;0.80;;;;;;;;;;5055526;28;20461;-58
2022/06/08 09:11:51;;;;;;;4.53;1.30;;;;;;;;;;5057593;28;20804;-58
2022/06/08 09:14:22;;;;;;;2.03;1.07;;;;;;;;;;5056158;28;20443;-58
2022/06/08 09:16:50;;;;;;;1.20;1.10;;;;;;;;;;5055200;28;20459;-58
2022/06/08 09:19:25;;;;;;;1.53;1.23;;;;;;;;;;5055526;28;20567;-57
2022/06/08 09:21:53;;;;;;;1.23;1.00;;;;;;;;;;5058894;28;20466;-59
2022/06/08 09:24:26;;;;;;;1.00;0.90;;;;;;;;;;5065502;28;20453;-58
2022/06/08 09:26:55;;;;;;;1.93;0.90;;;;;;;;;;5053588;28;20543;-58
2022/06/08 09:29:26;;;;;;;3.30;0.93;;;;;;;;;;5057813;28;20480;-57
2022/06/08 09:31:54;;;;;;;1.90;1.27;;;;;;;;;;5058245;28;20462;-60
2022/06/08 09:34:23;;;;;;;4.13;1.10;;;;;;;;;;5052993;28;20807;-60
2022/06/08 09:37:12;;;;;;;1.03;0.93;;;;;;;;;;5035825;28;20536;-60
2022/06/08 09:39:39;;;;;;;3.00;0.90;;;;;;;;;;5035857;28;20568;-57
2022/06/08 09:42:13;;;;;;;1.23;1.00;;;;;;;;;;5039643;28;20449;-59
2022/06/08 09:44:44;;;;;;;2.20;1.10;;;;;;;;;;5049844;28;20479;-66
2022/06/08 09:52:54;;;;;;;2.23;0.97;;;;;;;;;;5036888;28;20494;-59
2022/06/08 09:55:26;;;;;;;1.80;1.10;;;;;;;;;;5046417;28;20803;-62
2022/06/08 09:57:59;;;;;;;1.30;1.00;;;;;;;;;;5054287;28;20950;-62
2022/06/08 10:00:29;;;;;;;0.97;0.97;;;;;;;;;;5057542;28;20488;-59
2022/06/08 10:03:02;;;;;;;1.37;0.90;;;;;;;;;;5055230;28;20526;-59
2022/06/08 10:05:35;;;;;;;1.57;0.90;;;;;;;;;;5055345;28;20452;-59
2022/06/08 10:08:12;;;;;;;0.90;0.90;;;;;;;;;;5055158;28;20448;-58
2022/06/08 10:10:42;;;;;;;1.33;1.10;;;;;;;;;;5049907;28;20491;-60
2022/06/08 10:13:13;;;;;;;2.37;0.90;;;;;;;;;;5035459;28;20797;-62
2022/06/08 10:15:43;;;;;;;2.40;1.20;;;;;;;;;;5034965;28;20455;-62
2022/06/08 10:18:15;;;;;;;1.77;1.20;;;;;;;;;;5034601;28;20863;-62
2022/06/08 10:20:46;;;;;;;2.33;0.90;;;;;;;;;;5049436;28;20813;-71
2022/06/08 10:23:19;;;;;;;3.43;1.10;;;;;;;;;;5062393;28;20988;-68
2022/06/08 10:25:47;;;;;;;3.80;1.30;;;;;;;;;;5053898;28;20457;-64
2022/06/08 10:28:20;;;;;;;1.00;0.90;;;;;;;;;;5056243;28;20800;-66
2022/06/08 10:30:51;;;;;;;1.43;0.90;;;;;;;;;;5067725;28;21020;-67
2022/06/08 10:33:21;;;;;;;0.93;0.93;;;;;;;;;;5064870;28;20454;-66
2022/06/08 10:35:49;;;;;;;1.47;0.90;;;;;;;;;;5054859;28;20453;-60
2022/06/08 10:38:19;;;;;;;3.00;0.80;;;;;;;;;;5072434;28;20440;-60
2022/06/08 10:40:48;;;;;;;1.00;0.90;;;;;;;;;;5042641;28;20996;-73
2022/06/08 10:43:19;;;;;;;1.03;0.93;;;;;;;;;;5034240;28;20454;-61
2022/06/08 10:45:47;;;;;;;0.80;0.80;;;;;;;;;;5052689;28;20459;-60
2022/06/08 10:48:25;;;;;;;1.10;0.90;;;;;;;;;;5056573;28;20448;-61
2022/06/08 10:51:21;;;;;;;1.47;0.87;;;;;;;;;;5053259;28;20189;-62
2022/06/08 10:56:47;;;;;;;0.80;0.80;;;;;;;;;;5053579;28;20579;-61
2022/06/08 10:59:16;;;;;;;2.20;1.43;;;;;;;;;;5051607;28;20555;-61
2022/06/08 11:01:49;;;;;;;1.00;0.90;;;;;;;;;;5052951;28;20483;-61
2022/06/08 11:04:31;;;;;;;0.97;0.87;;;;;;;;;;5045630;28;20456;-61
2022/06/08 11:07:04;;;;;;;2.90;1.00;;;;;;;;;;5045997;28;20513;-61
2022/06/08 11:09:45;;;;;;;1.07;1.00;;;;;;;;;;5045121;28;20456;-61
2022/06/08 11:12:18;;;;;;;1.10;0.90;;;;;;;;;;5055898;28;20490;-77
2022/06/08 11:14:52;;;;;;;1.00;0.90;;;;;;;;;;5047219;28;20484;-66
2022/06/08 11:17:24;;;;;;;3.40;1.07;;;;;;;;;;5051979;28;20463;-60
2022/06/08 11:19:53;;;;;;;2.40;1.10;;;;;;;;;;5053714;28;20505;-62
2022/06/08 11:22:23;;;;;;;1.00;0.90;;;;;;;;;;5038333;28;20481;-60
2022/06/08 11:24:51;;;;;;;1.10;0.80;;;;;;;;;;5033675;28;20526;-58
2022/06/08 11:27:24;;;;;;;1.40;1.00;;;;;;;;;;5033869;28;20541;-60
2022/06/08 11:29:52;;;;;;;1.47;0.70;;;;;;;;;;5033438;28;20453;-59
2022/06/08 11:32:38;;;;;;;1.57;0.80;;;;;;;;;;5055688;28;20452;-57
2022/06/08 11:35:22;;;;;;;1.00;0.90;;;;;;;;;;5045961;28;20790;-61
2022/06/08 11:37:58;;;;;;;2.17;0.90;;;;;;;;;;5035002;28;20465;-57
2022/06/08 11:40:27;;;;;;;1.50;0.93;;;;;;;;;;5053732;28;20481;-61
2022/06/08 11:42:55;;;;;;;1.27;0.90;;;;;;;;;;5037682;28;20511;-60
2022/06/08 11:45:24;;;;;;;0.70;0.70;;;;;;;;;;5054618;28;20480;-61
2022/06/08 11:47:54;;;;;;;1.83;0.80;;;;;;;;;;5061364;28;20538;-62
2022/06/08 11:50:22;;;;;;;3.80;0.80;;;;;;;;;;5071652;28;20550;-60
2022/06/08 11:52:58;;;;;;;1.90;1.03;;;;;;;;;;5056028;28;20458;-60
2022/06/08 11:55:27;;;;;;;1.00;0.90;;;;;;;;;;5043249;28;20454;-64
2022/06/08 11:57:56;;;;;;;1.27;0.90;;;;;;;;;;5053190;28;20546;-62
2022/06/08 12:00:25;;;;;;;1.27;0.90;;;;;;;;;;5053135;28;20468;-61
2022/06/08 12:02:55;;;;;;;0.90;0.90;;;;;;;;;;5053004;28;20476;-61
2022/06/08 12:05:23;;;;;;;1.50;1.10;;;;;;;;;;5051827;28;20448;-65
2022/06/08 12:07:56;;;;;;;1.43;0.80;;;;;;;;;;5053018;28;20444;-63
2022/06/08 12:10:28;;;;;;;1.10;0.90;;;;;;;;;;5052779;28;20943;-63
2022/06/08 12:12:58;;;;;;;1.10;0.90;;;;;;;;;;5052753;28;20444;-64
2022/06/08 12:15:27;;;;;;;1.37;0.80;;;;;;;;;;5052171;28;20444;-63
2022/06/08 12:17:56;;;;;;;1.00;0.70;;;;;;;;;;5047734;28;20450;-61
2022/06/08 12:20:32;;;;;;;1.73;0.80;;;;;;;;;;5033815;28;20483;-60
2022/06/08 12:23:00;;;;;;;0.90;0.80;;;;;;;;;;5033023;28;20495;-61
2022/06/08 12:25:28;;;;;;;0.97;0.70;;;;;;;;;;5032945;28;20814;-62
2022/06/08 12:27:56;;;;;;;1.53;0.70;;;;;;;;;;5032906;28;20508;-61
2022/06/08 12:30:26;;;;;;;1.00;0.80;;;;;;;;;;5033469;28;20572;-60
2022/06/08 12:32:54;;;;;;;0.80;0.70;;;;;;;;;;5033204;28;21050;-64
2022/06/08 12:35:29;;;;;;;0.90;0.77;;;;;;;;;;5046567;28;20493;-63
2022/06/08 12:38:05;;;;;;;2.93;2.03;;;;;;;;;;5050171;28;20447;-62
2022/06/08 12:40:34;;;;;;;0.73;0.70;;;;;;;;;;5036870;28;20485;-69
2022/06/08 12:43:15;;;;;;;1.10;0.90;;;;;;;;;;5034386;28;20487;-60
2022/06/08 12:45:45;;;;;;;1.00;0.90;;;;;;;;;;5048789;28;20536;-59
2022/06/08 12:48:22;;;;;;;1.15;0.90;;;;;;;;;;5047372;28;20465;-60
2022/06/08 12:50:49;;;;;;;0.80;0.80;;;;;;;;;;5038495;28;20641;-63
2022/06/08 12:53:17;;;;;;;1.07;0.80;;;;;;;;;;5058312;28;20574;-64
2022/06/08 12:55:44;;;;;;;1.30;0.80;;;;;;;;;;5046357;28;20893;-61
2022/06/08 12:58:11;;;;;;;0.70;0.70;;;;;;;;;;5051359;28;20929;-65
2022/06/08 13:00:39;;;;;;;1.07;0.80;;;;;;;;;;5056281;28;20475;-64
2022/06/08 13:03:15;;;;;;;1.87;0.83;;;;;;;;;;5056472;28;20454;-65
2022/06/08 13:05:42;;;;;;;0.70;0.70;;;;;;;;;;5056413;28;20483;-65
2022/06/08 13:08:12;;;;;;;1.10;0.80;;;;;;;;;;5056434;28;20815;-65
2022/06/08 13:10:40;;;;;;;1.73;0.70;;;;;;;;;;5056362;28;20467;-65
2022/06/08 13:13:09;;;;;;;0.70;0.70;;;;;;;;;;5056148;28;20448;-65
2022/06/08 13:15:39;;;;;;;0.80;0.70;;;;;;;;;;5056432;28;20455;-66
2022/06/08 13:18:06;;;;;;;1.90;1.40;;;;;;;;;;5056008;28;20951;-65
2022/06/08 13:20:36;;;;;;;1.77;0.90;;;;;;;;;;5056164;28;20545;-65
2022/06/08 13:23:04;;;;;;;0.83;0.80;;;;;;;;;;5044083;28;20509;-65
2022/06/08 13:25:32;;;;;;;1.93;0.80;;;;;;;;;;5035757;28;20475;-65
2022/06/08 13:27:59;;;;;;;1.07;0.70;;;;;;;;;;5036461;28;20448;-65
2022/06/08 13:30:33;;;;;;;1.10;1.00;;;;;;;;;;5036391;28;20457;-65
2022/06/08 13:33:00;;;;;;;6.20;1.80;;;;;;;;;;5036378;28;20453;-65
2022/06/08 13:35:29;;;;;;;1.43;0.90;;;;;;;;;;5036091;28;20445;-65
2022/06/08 13:37:58;;;;;;;3.03;0.90;;;;;;;;;;5035951;28;20452;-65
2022/06/08 13:40:27;;;;;;;1.10;0.80;;;;;;;;;;5035778;28;20481;-65
2022/06/08 13:42:54;;;;;;;1.30;0.97;;;;;;;;;;5035943;28;20611;-65
2022/06/08 13:45:23;;;;;;;1.97;0.70;;;;;;;;;;5035545;28;20481;-65
2022/06/08 13:47:53;;;;;;;1.03;0.73;;;;;;;;;;5035769;28;20456;-64
2022/06/08 13:50:24;;;;;;;1.80;0.70;;;;;;;;;;5035785;28;20457;-65
2022/06/08 13:52:53;;;;;;;1.70;0.80;;;;;;;;;;5035520;28;20518;-65
2022/06/08 13:55:23;;;;;;;1.20;1.00;;;;;;;;;;5035384;28;20456;-65
2022/06/08 13:57:51;;;;;;;0.87;0.77;;;;;;;;;;5035761;28;20453;-65
2022/06/08 14:00:18;;;;;;;3.00;0.87;;;;;;;;;;5035436;28;20957;-65
2022/06/08 14:02:47;;;;;;;2.10;0.70;;;;;;;;;;5035356;28;20843;-65
2022/06/08 14:05:16;;;;;;;1.80;0.80;;;;;;;;;;5035330;28;20481;-65
2022/06/08 14:13:17;;;;;;;0.80;0.63;;;;;;;;;;5035227;28;20817;-65
2022/06/08 14:15:45;;;;;;;5.03;0.80;;;;;;;;;;5035538;28;20450;-65
2022/06/08 14:18:16;;;;;;;2.60;0.70;;;;;;;;;;5035453;28;20476;-65
2022/06/08 14:20:42;;;;;;;1.37;0.80;;;;;;;;;;5035268;28;20531;-65
2022/06/08 14:23:12;;;;;;;1.17;0.70;;;;;;;;;;5035127;28;20445;-65
2022/06/08 14:25:41;;;;;;;2.07;0.70;;;;;;;;;;5035121;28;20464;-65
2022/06/08 14:28:09;;;;;;;0.73;0.70;;;;;;;;;;5034878;28;20449;-65
2022/06/08 14:30:37;;;;;;;1.10;0.67;;;;;;;;;;5035468;28;20804;-65
2022/06/08 14:33:04;;;;;;;1.57;0.60;;;;;;;;;;5034748;28;20456;-65
2022/06/08 14:35:32;;;;;;;2.30;0.90;;;;;;;;;;5035045;28;20540;-65
2022/06/08 14:38:01;;;;;;;1.77;0.63;;;;;;;;;;5034977;28;20471;-65
2022/06/08 14:40:29;;;;;;;0.93;0.70;;;;;;;;;;5034799;28;20963;-65
2022/06/08 14:42:58;;;;;;;0.90;0.70;;;;;;;;;;5034687;28;20454;-65
2022/06/08 14:45:25;;;;;;;0.70;0.60;;;;;;;;;;5034397;28;20481;-65
2022/06/08 14:47:52;;;;;;;1.67;0.70;;;;;;;;;;5034580;28;20507;-65
2022/06/08 14:50:21;;;;;;;0.80;0.80;;;;;;;;;;5034674;28;20808;-65
2022/06/08 14:52:49;;;;;;;1.57;0.70;;;;;;;;;;5034656;28;20457;-65
2022/06/08 14:58:05;;;;;;;12.07;2.03;;;;;;;;;;5034348;28;20487;-66
2022/06/08 15:00:32;;;;;;;3.50;1.30;;;;;;;;;;5034494;28;20480;-64
2022/06/08 15:03:01;;;;;;;3.03;1.20;;;;;;;;;;5034494;28;20441;-64
2022/06/08 15:05:30;;;;;;;4.93;1.10;;;;;;;;;;5033535;28;20491;-64
2022/06/08 15:07:57;;;;;;;12.40;2.63;;;;;;;;;;5034367;28;20507;-62
2022/06/08 15:10:24;;;;;;;14.20;3.20;;;;;;;;;;5034355;28;20455;-63
2022/06/08 15:12:52;;;;;;;6.63;2.73;;;;;;;;;;5034135;28;20479;-63
2022/06/08 15:15:21;;;;;;;3.80;2.50;;;;;;;;;;5034180;28;20549;-63